Amber Lagoon — V7FS4 — position and weather

sailwx.info

Track history (hours):
 
Tides and Currents Weather Stations Pressure Air Temp Water Temp Dewpoint Dewpoint Depression Visibility Wind Speed Wind Dir Waves Ship Positions

Amber Lagoon

Last reported at 2018-Mar-24 04:45 UTC. Time now 2018-Apr-24 14:41 UTC.
Position N 34°05' E 132°47'.
Warning: this ship's position is 31 days out of date.

Length 93 m.

Type: Tanker. MMSI: 538007897.

Date/timePositionNaut miles runAvg speedWind from/ knotsBaromVisibWave heightAir tempDewpointWater temp
2018-Mar-24 04:45N 34°05' E 132°47'1 0.6
2018-Mar-24 03:20N 34°05' E 132°48'411.1
2018-Mar-24 02:58N 34°02' E 132°45'4 3.6
2018-Mar-24 01:50N 34°05' E 132°47'514.9
2018-Mar-24 01:29N 34°01' E 132°43'6 0.3
2018-Mar-23 06:24N 34°06' E 132°48'3 8.4
2018-Mar-23 05:59N 34°03' E 132°45'3 5.2
2018-Mar-23 05:29N 34°05' E 132°47'2 3.6
2018-Mar-23 05:00N 34°04' E 132°46'2 1.4
2018-Mar-23 03:44N 34°05' E 132°47'0 0.8
2018-Mar-23 03:09N 34°06' E 132°48'415.1
2018-Mar-23 02:53N 34°03' E 132°45'  
Track history (hours):
 
Tides and Currents Weather Stations Pressure Air Temp Water Temp Dewpoint Dewpoint Depression Visibility Wind Speed Wind Dir Waves Ship Positions

Amber Lagoon

Last reported at 2018-Mar-24 04:45 UTC. Time now 2018-Apr-24 14:41 UTC.
Position N 34°05' E 132°47'.
Warning: this ship's position is 31 days out of date.

Length 93 m.

Type: Tanker. MMSI: 538007897.

Date/timePositionNaut miles runAvg speedWind from/ knotsBaromVisibWave heightAir tempDewpointWater temp
2018-Mar-24 04:45N 34°05' E 132°47'1 0.6
2018-Mar-24 03:20N 34°05' E 132°48'411.1
2018-Mar-24 02:58N 34°02' E 132°45'4 3.6
2018-Mar-24 01:50N 34°05' E 132°47'514.9
2018-Mar-24 01:29N 34°01' E 132°43'6 0.3
2018-Mar-23 06:24N 34°06' E 132°48'3 8.4
2018-Mar-23 05:59N 34°03' E 132°45'3 5.2
2018-Mar-23 05:29N 34°05' E 132°47'2 3.6
2018-Mar-23 05:00N 34°04' E 132°46'2 1.4
2018-Mar-23 03:44N 34°05' E 132°47'0 0.8
2018-Mar-23 03:09N 34°06' E 132°48'415.1
2018-Mar-23 02:53N 34°03' E 132°45'  

Dump ship's entire track history